^^
Saratoga-Weather Station Historical Data
Daily Summary for January 15, 2021 Units:  English    Metric   Both
Daily Weekly Monthly Yearly Custom
  High: Low: Average:
Temperature: 72 °F 63.3 °F 66.6 °F
Dew Point: 66.9 °F 61.9 °F 64 °F
Humidity: 96% 83% 92%
Wind Speed: 8.1mph 0mph 1.2mph
Wind Gust: 10mph - -
Wind- - WSW
Pressure: 29.9 in 29.8 in -
Precipitation: 0.05 in    
Historical Graphs
 
 
Tabular Data for January 15, 2021
Time Temperature Dew Point Pressure Wind Wind Speed Wind Gust Humidity Rainfall Rate (Hourly) solar
00:01 64.2 °F 62.4 °F 29.9 in Calm     94% 0 in 0 W/m2
00:06 64.2 °F 62.4 °F 29.9 in Calm     94% 0 in 0 W/m2
00:11 64.2 °F 62.4 °F 29.9 in Calm     94% 0 in 0 W/m2
00:16 64.2 °F 62.4 °F 29.9 in Calm     94% 0 in 0 W/m2
00:21 64.2 °F 62.4 °F 29.9 in Calm     94% 0 in 0 W/m2
00:26 64.2 °F 62.4 °F 29.9 in Calm     94% 0 in 0 W/m2
00:31 64 °F 62.2 °F 29.9 in Calm     94% 0 in 0 W/m2
00:36 64 °F 62.2 °F 29.9 in Calm     94% 0 in 0 W/m2
00:41 64 °F 62.2 °F 29.9 in Calm     94% 0 in 0 W/m2
00:46 64 °F 62.2 °F 29.9 in Calm     94% 0 in 0 W/m2
00:51 64 °F 62.2 °F 29.9 in Calm     94% 0 in 0 W/m2
00:56 64 °F 62.6 °F 29.9 in Calm     95% 0 in 0 W/m2
01:01 63.9 °F 62.4 °F 29.9 in Calm     95% 0 in 0 W/m2
01:06 63.9 °F 62.4 °F 29.9 in Calm     95% 0 in 0 W/m2
01:11 63.9 °F 62.4 °F 29.9 in Calm     95% 0 in 0 W/m2
01:16 63.9 °F 62.4 °F 29.9 in Calm     95% 0 in 0 W/m2
01:21 63.9 °F 62.4 °F 29.9 in Calm     95% 0 in 0 W/m2
01:26 63.9 °F 62.4 °F 29.9 in Calm     95% 0 in 0 W/m2
01:31 63.9 °F 62.4 °F 29.9 in Calm     95% 0 in 0 W/m2
01:36 63.9 °F 62.4 °F 29.9 in Calm     95% 0 in 0 W/m2
01:41 63.9 °F 62.4 °F 29.9 in Calm     95% 0 in 0 W/m2
01:46 63.9 °F 62.4 °F 29.9 in Calm     95% 0 in 0 W/m2
01:51 63.9 °F 62.4 °F 29.9 in Calm     95% 0 in 0 W/m2
01:56 63.9 °F 62.4 °F 29.9 in Calm     95% 0 in 0 W/m2
02:01 63.9 °F 62.4 °F 29.9 in Calm     95% 0 in 0 W/m2
02:06 63.9 °F 62.4 °F 29.9 in Calm     95% 0 in 0 W/m2
02:11 63.9 °F 62.4 °F 29.9 in Calm     95% 0 in 0 W/m2
02:17 64 °F 62.6 °F 29.9 in Calm     95% 0 in 0 W/m2
02:22 64 °F 62.6 °F 29.9 in Calm     95% 0 in 0 W/m2
02:27 64 °F 62.6 °F 29.9 in Calm     95% 0 in 0 W/m2
02:32 63.9 °F 62.4 °F 29.9 in Calm     95% 0 in 0 W/m2
02:37 63.9 °F 62.4 °F 29.9 in Calm   1 mph 95% 0 in 0 W/m2
02:42 63.9 °F 62.4 °F 29.9 in Calm     95% 0 in 0 W/m2
02:47 63.9 °F 62.4 °F 29.9 in Calm   1 mph 95% 0 in 0 W/m2
02:52 63.9 °F 62.4 °F 29.9 in Calm     95% 0 in 0 W/m2
02:57 63.9 °F 62.4 °F 29.9 in Calm   3 mph 95% 0 in 0 W/m2
03:02 64 °F 62.6 °F 29.9 in SE 2 mph 2 mph 95% 0 in 0 W/m2
03:07 64.2 °F 63.1 °F 29.9 in SE 0.9 mph 3 mph 96% 0 in 0 W/m2
03:12 64.2 °F 63.1 °F 29.9 in SE 2 mph 2 mph 96% 0 in 0 W/m2
03:17 64.2 °F 62.8 °F 29.9 in ESE 0.9 mph 3 mph 95% 0 in 0 W/m2
03:22 64.2 °F 62.8 °F 29.9 in ESE 0.9 mph 2 mph 95% 0 in 0 W/m2
03:27 64 °F 62.6 °F 29.8 in Calm   3 mph 95% 0 in 0 W/m2
03:32 64 °F 62.6 °F 29.8 in Calm     95% 0 in 0 W/m2
03:37 64 °F 62.6 °F 29.8 in Calm   1 mph 95% 0 in 0 W/m2
03:42 64 °F 62.6 °F 29.9 in Calm     95% 0 in 0 W/m2
03:47 64 °F 62.6 °F 29.8 in Calm   1 mph 95% 0 in 0 W/m2
03:52 64 °F 62.6 °F 29.8 in Calm     95% 0 in 0 W/m2
03:57 63.9 °F 62.4 °F 29.8 in Calm     95% 0 in 0 W/m2
04:02 63.9 °F 62.4 °F 29.8 in Calm     95% 0 in 0 W/m2
04:07 63.9 °F 62.4 °F 29.8 in Calm     95% 0 in 0 W/m2
04:12 63.9 °F 62.4 °F 29.8 in Calm     95% 0 in 0 W/m2
04:17 63.7 °F 62.2 °F 29.8 in Calm     95% 0 in 0 W/m2
04:22 63.7 °F 62.2 °F 29.8 in Calm     95% 0 in 0 W/m2
04:27 63.7 °F 62.2 °F 29.8 in Calm     95% 0 in 0 W/m2
04:32 63.7 °F 62.2 °F 29.8 in Calm     95% 0 in 0 W/m2
04:37 63.7 °F 62.6 °F 29.8 in Calm     96% 0 in 0 W/m2
04:42 63.7 °F 62.6 °F 29.8 in Calm     96% 0 in 0 W/m2
04:47 63.7 °F 62.6 °F 29.8 in Calm   2 mph 96% 0 in 0 W/m2
04:52 63.9 °F 62.8 °F 29.9 in Calm     96% 0 in 0 W/m2
04:57 63.9 °F 62.8 °F 29.9 in Calm   1 mph 96% 0 in 0 W/m2
05:02 63.9 °F 62.8 °F 29.9 in Calm   1 mph 96% 0 in 0 W/m2
05:07 63.9 °F 62.8 °F 29.8 in Calm     96% 0 in 0 W/m2
05:12 63.9 °F 62.8 °F 29.9 in Calm   1 mph 96% 0 in 0 W/m2
05:17 63.9 °F 62.8 °F 29.9 in Calm     96% 0 in 0 W/m2
05:22 63.9 °F 62.8 °F 29.9 in Calm     96% 0 in 0 W/m2
05:27 63.7 °F 62.6 °F 29.9 in Calm     96% 0 in 0 W/m2
05:32 63.7 °F 62.6 °F 29.9 in Calm     96% 0 in 0 W/m2
05:37 63.7 °F 62.6 °F 29.9 in Calm     96% 0 in 0 W/m2
05:42 63.7 °F 62.6 °F 29.9 in Calm     96% 0 in 0 W/m2
05:47 63.7 °F 62.6 °F 29.9 in Calm     96% 0 in 0 W/m2
05:52 63.7 °F 62.6 °F 29.9 in Calm     96% 0 in 0 W/m2
05:57 63.7 °F 62.6 °F 29.9 in Calm     96% 0 in 0 W/m2
06:02 63.7 °F 62.6 °F 29.9 in Calm     96% 0 in 0 W/m2
06:07 63.5 °F 62.1 °F 29.9 in Calm     95% 0 in 0 W/m2
06:12 63.5 °F 62.1 °F 29.9 in Calm     95% 0 in 0 W/m2
06:17 63.3 °F 61.9 °F 29.9 in Calm     95% 0 in 0 W/m2
06:22 63.3 °F 61.9 °F 29.9 in Calm     95% 0 in 0 W/m2
06:27 63.3 °F 61.9 °F 29.9 in Calm     95% 0 in 0 W/m2
06:32 63.3 °F 61.9 °F 29.9 in Calm     95% 0 in 0 W/m2
06:37 63.3 °F 61.9 °F 29.9 in Calm     95% 0 in 0 W/m2
06:42 63.3 °F 61.9 °F 29.8 in Calm     95% 0 in 0 W/m2
06:47 63.3 °F 61.9 °F 29.8 in Calm     95% 0 in 0 W/m2
06:52 63.3 °F 61.9 °F 29.8 in Calm     95% 0 in 0 W/m2
06:57 63.3 °F 61.9 °F 29.8 in Calm     95% 0 in 0 W/m2
07:02 63.3 °F 61.9 °F 29.8 in Calm     95% 0 in 0 W/m2
07:07 63.3 °F 61.9 °F 29.8 in Calm     95% 0 in 0 W/m2
07:12 63.5 °F 62.1 °F 29.8 in Calm     95% 0 in 0 W/m2
07:17 63.5 °F 62.1 °F 29.8 in Calm     95% 0 in 0 W/m2
07:22 63.5 °F 62.4 °F 29.8 in Calm     96% 0 in 0 W/m2
07:27 63.7 °F 62.6 °F 29.8 in Calm     96% 0 in 0 W/m2
07:32 63.7 °F 62.6 °F 29.8 in Calm     96% 0 in 0 W/m2
07:37 63.7 °F 62.6 °F 29.8 in Calm     96% 0 in 0 W/m2
07:42 63.9 °F 62.8 °F 29.9 in Calm     96% 0 in 5 W/m2
07:47 63.9 °F 62.8 °F 29.9 in Calm     96% 0 in 5 W/m2
07:52 63.9 °F 62.8 °F 29.9 in Calm     96% 0 in 9 W/m2
07:57 63.9 °F 62.8 °F 29.9 in Calm     96% 0 in 12 W/m2
08:02 63.9 °F 62.8 °F 29.9 in Calm     96% 0 in 14 W/m2
08:07 64 °F 63 °F 29.9 in Calm     96% 0 in 18 W/m2
08:13 64 °F 63 °F 29.9 in Calm     96% 0 in 19 W/m2
08:18 64 °F 63 °F 29.9 in Calm     96% 0 in 14 W/m2
08:23 64.2 °F 63.1 °F 29.9 in Calm     96% 0 in 12 W/m2
08:28 64.2 °F 63.1 °F 29.9 in Calm     96% 0 in 16 W/m2
08:33 64.2 °F 63.1 °F 29.9 in Calm     96% 0 in 14 W/m2
08:38 64.2 °F 63.1 °F 29.9 in Calm     96% 0 in 12 W/m2
08:43 64.4 °F 63.3 °F 29.9 in Calm     96% 0 in 16 W/m2
08:48 64.4 °F 63.3 °F 29.9 in Calm     96% 0 in 26 W/m2
08:53 64.6 °F 63.5 °F 29.9 in ESE 0.9 mph 3 mph 96% 0 in 37 W/m2
08:58 64.9 °F 63.9 °F 29.9 in ESE 2.9 mph 6 mph 96% 0 in 28 W/m2
09:03 65.1 °F 64 °F 29.9 in ESE 0.9 mph 1 mph 96% 0 in 35 W/m2
09:08 65.3 °F 64 °F 29.9 in NE 0.9 mph 6 mph 96% 0 in 47 W/m2
09:13 65.7 °F 64.4 °F 29.9 in NE 0.9 mph 2 mph 96% 0 in 60 W/m2
09:18 65.8 °F 64.6 °F 29.9 in NE 0.9 mph 1 mph 96% 0 in 58 W/m2
09:23 65.8 °F 64.4 °F 29.9 in NE 0.9 mph 2 mph 95% 0 in 42 W/m2
09:28 66 °F 64.6 °F 29.9 in Calm   1 mph 95% 0 in 42 W/m2
09:33 66.4 °F 64.9 °F 29.9 in WNW 0.9 mph 2 mph 95% 0 in 44 W/m2
09:38 66.6 °F 64.8 °F 29.9 in ENE 2 mph 2 mph 94% 0 in 70 W/m2
09:43 66.7 °F 64.9 °F 29.9 in Calm   1 mph 94% 0 in 88 W/m2
09:48 66.9 °F 65.1 °F 29.9 in Calm   4 mph 94% 0 in 86 W/m2
09:53 67.1 °F 64.9 °F 29.9 in NNW 2.9 mph 4 mph 93% 0 in 95 W/m2
09:58 67.3 °F 65.1 °F 29.9 in NW 0.9 mph 4 mph 93% 0 in 107 W/m2
10:03 67.5 °F 65.3 °F 29.9 in South 0.9 mph 4 mph 93% 0 in 163 W/m2
10:08 67.6 °F 65.5 °F 29.9 in Calm   2 mph 93% 0 in 139 W/m2
10:13 67.6 °F 65.3 °F 29.9 in NNW 0.9 mph 6 mph 92% 0 in 163 W/m2
10:18 67.8 °F 65.5 °F 29.9 in NNE 0.9 mph 3 mph 92% 0 in 216 W/m2
10:23 68.2 °F 65.8 °F 29.9 in West 2 mph 4 mph 92% 0 in 207 W/m2
10:28 68.4 °F 65.7 °F 29.9 in NW 0.9 mph 5 mph 91% 0 in 214 W/m2
10:33 68.5 °F 65.8 °F 29.9 in NNW 2 mph 3 mph 91% 0 in 246 W/m2
10:38 68.7 °F 65.7 °F 29.9 in NW 2.9 mph 5 mph 90% 0 in 206 W/m2
10:43 68.9 °F 65.8 °F 29.9 in WSW 2.9 mph 3 mph 90% 0 in 192 W/m2
10:48 69.1 °F 65.7 °F 29.9 in West 2 mph 2 mph 89% 0 in 209 W/m2
10:53 69.3 °F 65.5 °F 29.9 in North 2 mph 4 mph 88% 0 in 121 W/m2
10:58 69.3 °F 65.5 °F 29.9 in Calm   5 mph 88% 0 in 244 W/m2
11:03 69.4 °F 65.7 °F 29.9 in NNE 4 mph 5 mph 88% 0 in 237 W/m2
11:08 69.4 °F 65.7 °F 29.9 in West 2 mph 7 mph 88% 0 in 241 W/m2
11:13 69.6 °F 65.7 °F 29.9 in NW 0.9 mph 4 mph 87% 0 in 229 W/m2
11:18 69.8 °F 65.8 °F 29.9 in NW 0.9 mph 4 mph 87% 0 in 241 W/m2
11:23 70 °F 65.7 °F 29.9 in Calm   9 mph 86% 0 in 257 W/m2
11:28 70 °F 65.7 °F 29.9 in West 2 mph 7 mph 86% 0 in 223 W/m2
11:33 70 °F 65.7 °F 29.9 in West 4 mph 9 mph 86% 0 in 267 W/m2
11:38 70.2 °F 65.8 °F 29.9 in WNW 8.1 mph 9 mph 86% 0 in 299 W/m2
11:43 70.2 °F 65.8 °F 29.9 in Calm   2 mph 86% 0 in 274 W/m2
11:48 70.3 °F 65.7 °F 29.9 in WSW 4 mph 5 mph 85% 0 in 149 W/m2
11:53 70.2 °F 65.5 °F 29.9 in NW 2.9 mph 8 mph 85% 0 in 149 W/m2
11:58 70 °F 65.3 °F 29.9 in SW 2 mph 8 mph 85% 0 in 111 W/m2
12:03 70 °F 65.3 °F 29.9 in NNW 0.9 mph 3 mph 85% 0 in 98 W/m2
12:08 69.8 °F 65.1 °F 29.9 in WNW 2.9 mph 7 mph 85% 0 in 70 W/m2
12:13 69.4 °F 64.8 °F 29.9 in WNW 2 mph 3 mph 85% 0 in 67 W/m2
12:18 69.3 °F 64.6 °F 29.9 in NNE 0.9 mph 4 mph 85% 0 in 69 W/m2
12:23 69.3 °F 64.9 °F 29.9 in East 6 mph 6 mph 86% 0 in 76 W/m2
12:28 69.1 °F 64.8 °F 29.9 in WNW 0.9 mph 7 mph 86% 0 in 102 W/m2
12:33 69.1 °F 64.8 °F 29.9 in NNW 0.9 mph 2 mph 86% 0 in 146 W/m2
12:38 69.1 °F 64.8 °F 29.9 in Calm   7 mph 86% 0 in 156 W/m2
12:43 69.3 °F 64.9 °F 29.9 in SSW 2 mph 3 mph 86% 0 in 95 W/m2
12:48 69.3 °F 64.9 °F 29.9 in NW 0.9 mph 7 mph 86% 0 in 84 W/m2
12:53 69.3 °F 64.9 °F 29.9 in WSW 4.9 mph 6 mph 86% 0 in 67 W/m2
12:58 69.3 °F 64.9 °F 29.9 in Calm   3 mph 86% 0 in 63 W/m2
13:03 69.3 °F 64.9 °F 29.9 in West 0.9 mph 2 mph 86% 0 in 60 W/m2
13:08 69.1 °F 64.8 °F 29.9 in NNW 2 mph 2 mph 86% 0 in 54 W/m2
13:13 69.1 °F 64.8 °F 29.9 in NW 2 mph 3 mph 86% 0 in 60 W/m2
13:18 68.9 °F 64.9 °F 29.9 in NNW 2 mph 4 mph 87% 0 in 67 W/m2
13:23 68.9 °F 64.9 °F 29.9 in West 0.9 mph 3 mph 87% 0 in 76 W/m2
13:28 68.7 °F 64.9 °F 29.9 in West 6 mph 7 mph 88% 0 in 98 W/m2
13:33 68.4 °F 64.6 °F 29.9 in Calm   3 mph 88% 0 in 77 W/m2
13:38 68.4 °F 64.9 °F 29.9 in NNW 0.9 mph 3 mph 89% 0 in 81 W/m2
13:43 68.4 °F 64.9 °F 29.9 in WNW 4 mph 5 mph 89% 0 in 65 W/m2
13:48 68.2 °F 65.1 °F 29.9 in Calm   1 mph 90% 0 in 67 W/m2
13:53 68.2 °F 65.1 °F 29.9 in NE 0.9 mph 2 mph 90% 0 in 49 W/m2
13:59 68.2 °F 65.1 °F 29.9 in Calm   2 mph 90% 0 in 74 W/m2
14:04 68.4 °F 65.3 °F 29.9 in Calm     90% 0 in 56 W/m2
14:09 68.2 °F 65.1 °F 29.9 in Calm     90% 0 in 104 W/m2
14:14 68.2 °F 65.1 °F 29.9 in WNW 2 mph 2 mph 90% 0 in 158 W/m2
14:19 68.4 °F 65.3 °F 29.9 in WNW 4 mph 4 mph 90% 0 in 243 W/m2
14:24 68.5 °F 65.5 °F 29.9 in NW 2 mph 4 mph 90% 0 in 257 W/m2
14:29 68.7 °F 65.3 °F 29.8 in NNW 0.9 mph 4 mph 89% 0 in 311 W/m2
14:34 69.1 °F 65.7 °F 29.9 in WNW 0.9 mph 5 mph 89% 0 in 269 W/m2
14:39 69.3 °F 65.5 °F 29.9 in Calm   5 mph 88% 0 in 81 W/m2
14:44 69.4 °F 65.7 °F 29.9 in WNW 2.9 mph 4 mph 88% 0 in 134 W/m2
14:49 69.3 °F 65.3 °F 29.9 in West 0.9 mph 7 mph 87% 0 in 142 W/m2
14:54 69.1 °F 65.3 °F 29.9 in Calm   1 mph 88% 0 in 146 W/m2
14:59 69.1 °F 65.3 °F 29.9 in SSW 2 mph 3 mph 88% 0 in 178 W/m2
15:04 69.3 °F 65.5 °F 29.9 in NW 2.9 mph 4 mph 88% 0 in 236 W/m2
15:09 69.4 °F 65.7 °F 29.9 in SSW 2.9 mph 3 mph 88% 0 in 309 W/m2
15:14 69.4 °F 65.7 °F 29.9 in SSW 2 mph 8 mph 88% 0 in 246 W/m2
15:19 69.6 °F 65.8 °F 29.9 in SW 4 mph 5 mph 88% 0 in 155 W/m2
15:24 69.6 °F 65.7 °F 29.9 in NW 2 mph 8 mph 87% 0 in 192 W/m2
15:29 69.4 °F 65.5 °F 29.9 in NW 0.9 mph 10 mph 87% 0 in 311 W/m2
15:34 69.6 °F 65.7 °F 29.9 in West 2.9 mph 5 mph 87% 0 in 220 W/m2
15:39 70 °F 66 °F 29.9 in South 0.9 mph 8 mph 87% 0 in 371 W/m2
15:44 70.2 °F 65.8 °F 29.9 in WNW 2.9 mph 9 mph 86% 0 in 257 W/m2
15:49 70.2 °F 65.8 °F 29.9 in NNW 2.9 mph 4 mph 86% 0 in 186 W/m2
15:54 70.2 °F 66 °F 29.9 in NNE 0.9 mph 9 mph 87% 0 in 202 W/m2
15:59 70.2 °F 65.8 °F 29.9 in SW 2.9 mph 8 mph 86% 0 in 186 W/m2
16:04 70.2 °F 66 °F 29.9 in WNW 4 mph 5 mph 87% 0 in 332 W/m2
16:09 70 °F 65.7 °F 29.8 in WNW 2 mph 10 mph 86% 0 in 385 W/m2
16:14 70.3 °F 66.2 °F 29.8 in West 2 mph 5 mph 87% 0 in 408 W/m2
16:19 71.1 °F 66.7 °F 29.8 in WNW 2 mph 10 mph 86% 0 in 584 W/m2
16:24 71.6 °F 66.9 °F 29.8 in South 2 mph 4 mph 85% 0 in 197 W/m2
16:29 71.8 °F 66.7 °F 29.8 in Calm   3 mph 84% 0 in 455 W/m2
16:34 72 °F 66.6 °F 29.8 in North 0.9 mph 8 mph 83% 0 in 387 W/m2
16:39 71.8 °F 66.7 °F 29.8 in WSW 4.9 mph 8 mph 84% 0 in 381 W/m2
16:44 71.6 °F 66.6 °F 29.8 in NNW 4 mph 9 mph 84% 0 in 357 W/m2
16:49 71.2 °F 65.8 °F 29.9 in West 2 mph 3 mph 83% 0 in 100 W/m2
16:54 71.1 °F 66 °F 29.9 in WSW 4 mph 9 mph 84% 0 in 93 W/m2
16:59 70.7 °F 65.7 °F 29.9 in NW 0.9 mph 3 mph 84% 0 in 95 W/m2
17:04 70.7 °F 65.7 °F 29.9 in WNW 2.9 mph 4 mph 84% 0 in 88 W/m2
17:09 70.7 °F 65.7 °F 29.9 in Calm   1 mph 84% 0 in 90 W/m2
17:14 70.7 °F 66 °F 29.8 in WNW 0.9 mph 3 mph 85% 0 in 135 W/m2
17:19 70.5 °F 66.2 °F 29.8 in Calm   2 mph 86% 0 in 162 W/m2
17:24 70.5 °F 66.2 °F 29.8 in NNW 2 mph 3 mph 86% 0 in 183 W/m2
17:29 70.3 °F 66 °F 29.8 in NE 0.9 mph 4 mph 86% 0 in 137 W/m2
17:34 70.5 °F 66.2 °F 29.9 in NNW 0.9 mph 2 mph 86% 0 in 132 W/m2
17:39 70.5 °F 66.2 °F 29.9 in NNE 0.9 mph 1 mph 86% 0 in 149 W/m2
17:44 70.5 °F 66.2 °F 29.9 in SW 0.9 mph 2 mph 86% 0 in 113 W/m2
17:49 70.7 °F 66.4 °F 29.9 in Calm   3 mph 86% 0 in 70 W/m2
17:54 70.5 °F 66.2 °F 29.9 in Calm   1 mph 86% 0 in 65 W/m2
17:59 70.5 °F 66.2 °F 29.9 in Calm   1 mph 86% 0 in 49 W/m2
18:04 70.5 °F 66.4 °F 29.9 in NW 0.9 mph 3 mph 87% 0 in 37 W/m2
18:09 70.2 °F 66 °F 29.9 in Calm   2 mph 87% 0 in 32 W/m2
18:14 70.2 °F 66 °F 29.9 in NW 2.9 mph 3 mph 87% 0 in 72 W/m2
18:19 70 °F 66 °F 29.9 in NNW 0.9 mph 2 mph 87% 0 in 58 W/m2
18:24 70 °F 66.2 °F 29.9 in NE 0.9 mph 2 mph 88% 0 in 135 W/m2
18:29 70.2 °F 66.4 °F 29.8 in Calm   3 mph 88% 0 in 81 W/m2
18:34 70.2 °F 66 °F 29.9 in WSW 2.9 mph 3 mph 87% 0 in 127 W/m2
18:39 70.3 °F 66.2 °F 29.8 in Calm   1 mph 87% 0 in 83 W/m2
18:44 70.3 °F 66.2 °F 29.8 in Calm   6 mph 87% 0 in 30 W/m2
18:49 70.2 °F 65.8 °F 29.9 in NW 2 mph 5 mph 86% 0 in 23 W/m2
18:54 69.8 °F 65.5 °F 29.9 in NW 2.9 mph 4 mph 86% 0 in 16 W/m2
18:59 69.4 °F 65.5 °F 29.9 in NW 2.9 mph 4 mph 87% 0 in 14 W/m2
19:04 69.3 °F 65.3 °F 29.9 in WNW 2.9 mph 7 mph 87% 0 in 12 W/m2
19:09 69.1 °F 65.3 °F 29.9 in WNW 2 mph 3 mph 88% 0 in 12 W/m2
19:14 68.7 °F 64.9 °F 29.9 in WNW 2 mph 3 mph 88% 0 in 9 W/m2
19:19 68.5 °F 64.8 °F 29.9 in West 2 mph 2 mph 88% 0 in 7 W/m2
19:24 68.4 °F 64.9 °F 29.9 in West 2 mph 6 mph 89% 0 in 7 W/m2
19:29 68.4 °F 64.9 °F 29.9 in WNW 0.9 mph 4 mph 89% 0 in 7 W/m2
19:34 68.4 °F 64.9 °F 29.9 in Calm   2 mph 89% 0 in 5 W/m2
19:39 68.4 °F 64.9 °F 29.9 in WNW 2 mph 4 mph 89% 0 in 0 W/m2
19:44 68.2 °F 64.8 °F 29.9 in NW 2.9 mph 5 mph 89% 0 in 0 W/m2
19:49 68.2 °F 64.8 °F 29.9 in NW 2 mph 3 mph 89% 0 in 0 W/m2
19:54 68.2 °F 64.8 °F 29.9 in Calm   5 mph 89% 0 in 0 W/m2
19:59 68 °F 64.6 °F 29.9 in NNW 0.9 mph 2 mph 89% 0 in 0 W/m2
20:04 67.8 °F 64.4 °F 29.9 in WNW 2 mph 6 mph 89% 0 in 0 W/m2
20:09 67.8 °F 64.4 °F 29.9 in WNW 2 mph 5 mph 89% 0 in 0 W/m2
20:14 67.8 °F 64.8 °F 29.9 in NW 4 mph 6 mph 90% 0 in 0 W/m2
20:19 67.6 °F 64.6 °F 29.9 in Calm   6 mph 90% 0 in 0 W/m2
20:25 67.6 °F 64.6 °F 29.9 in West 2 mph 7 mph 90% 0 in 0 W/m2
20:30 67.6 °F 64.6 °F 29.9 in SW 4 mph 8 mph 90% 0 in 0 W/m2
20:35 67.6 °F 64.6 °F 29.9 in WSW 2 mph 4 mph 90% 0 in 0 W/m2
20:40 67.3 °F 64.2 °F 29.9 in WNW 4 mph 4 mph 90% 0 in 0 W/m2
20:45 66.9 °F 64.2 °F 29.9 in West 4 mph 6 mph 91% 0 in 0 W/m2
20:50 66.7 °F 64 °F 29.9 in WNW 4 mph 7 mph 91% 0 in 0 W/m2
20:55 66.6 °F 64.2 °F 29.9 in WNW 2 mph 4 mph 92% 0.01 in 0 W/m2
21:00 66.4 °F 64 °F 29.9 in West 2.9 mph 4 mph 92% 0.01 in 0 W/m2
21:05 66.4 °F 64 °F 29.9 in West 0.9 mph 2 mph 92% 0.01 in 0 W/m2
21:10 66.4 °F 64.2 °F 29.9 in WSW 2 mph 4 mph 93% 0.01 in 0 W/m2
21:15 66.4 °F 64.2 °F 29.9 in West 2.9 mph 6 mph 93% 0.01 in 0 W/m2
21:20 66.2 °F 64 °F 29.9 in West 2 mph 3 mph 93% 0.01 in 0 W/m2
21:25 66.2 °F 64 °F 29.9 in WSW 4.9 mph 5 mph 93% 0.01 in 0 W/m2
21:30 66 °F 63.9 °F 29.9 in WNW 2 mph 7 mph 93% 0.01 in 0 W/m2
21:35 66 °F 64.2 °F 29.9 in West 2 mph 4 mph 94% 0.01 in 0 W/m2
21:40 66 °F 64.2 °F 29.9 in WNW 0.9 mph 7 mph 94% 0.01 in 0 W/m2
21:45 65.8 °F 64 °F 29.9 in West 2.9 mph 4 mph 94% 0.02 in 0 W/m2
21:50 65.8 °F 64 °F 29.9 in West 2 mph 4 mph 94% 0.01 in 0 W/m2
21:55 65.7 °F 63.9 °F 29.9 in WNW 4 mph 4 mph 94% 0.01 in 0 W/m2
22:00 65.7 °F 63.9 °F 29.9 in WSW 2 mph 5 mph 94% 0.01 in 0 W/m2
22:05 65.7 °F 63.9 °F 29.9 in NW 0.9 mph 2 mph 94% 0.01 in 0 W/m2
22:10 65.7 °F 63.9 °F 29.9 in Calm   1 mph 94% 0.02 in 0 W/m2
22:15 65.7 °F 63.9 °F 29.9 in NW 0.9 mph 1 mph 94% 0.02 in 0 W/m2
22:20 65.7 °F 64.2 °F 29.9 in NW 2 mph 3 mph 95% 0.02 in 0 W/m2
22:25 65.7 °F 64.2 °F 29.9 in Calm   2 mph 95% 0.02 in 0 W/m2
22:30 65.7 °F 64.2 °F 29.9 in Calm     95% 0.02 in 0 W/m2
22:35 65.5 °F 64 °F 29.9 in NW 2 mph 3 mph 95% 0.02 in 0 W/m2
22:40 65.5 °F 64 °F 29.9 in WNW 0.9 mph 2 mph 95% 0.02 in 0 W/m2
22:45 65.3 °F 63.9 °F 29.9 in West 2 mph 2 mph 95% 0.02 in 0 W/m2
22:50 65.3 °F 63.9 °F 29.9 in WNW 2 mph 3 mph 95% 0.02 in 0 W/m2
22:55 65.1 °F 63.7 °F 29.9 in WNW 4.9 mph 9 mph 95% 0.02 in 0 W/m2
23:00 64.8 °F 63.3 °F 29.9 in West 6 mph 7 mph 95% 0.03 in 0 W/m2
23:05 64.6 °F 63.1 °F 29.9 in West 2.9 mph 6 mph 95% 0.03 in 0 W/m2
23:10 64.4 °F 63 °F 29.9 in West 4 mph 4 mph 95% 0.02 in 0 W/m2
23:15 64.2 °F 62.8 °F 29.9 in West 4 mph 4 mph 95% 0.02 in 0 W/m2
23:20 64 °F 62.6 °F 29.9 in WNW 2 mph 4 mph 95% 0.02 in 0 W/m2
23:25 64 °F 62.2 °F 29.9 in WNW 4.9 mph 5 mph 94% 0.02 in 0 W/m2
23:30 63.9 °F 62.1 °F 29.9 in WSW 2.9 mph 6 mph 94% 0.02 in 0 W/m2
23:35 63.9 °F 62.1 °F 29.9 in WNW 4 mph 7 mph 94% 0.02 in 0 W/m2
23:40 63.7 °F 61.9 °F 29.9 in NW 0.9 mph 3 mph 94% 0.02 in 0 W/m2
23:45 63.9 °F 62.1 °F 29.9 in WNW 0.9 mph 5 mph 94% 0.02 in 0 W/m2
23:50 63.7 °F 61.9 °F 29.9 in West 0.9 mph 2 mph 94% 0.01 in 0 W/m2
23:55 63.7 °F 61.9 °F 29.9 in Calm   3 mph 94% 0.01 in 0 W/m2
Juneau County Weather
Compliments of Weather Underground - 2 mb